Latest Weather Observations for Walpole North

IDW60801

Issued at 10:23 am WST Monday 30 November 2020 (issued every 10 minutes, with the page automatically refreshed every 10 minutes)

About weather observations | Map of weather stations | Latest weather observations for WA | Other Formats
Station Details ID: 009998 Name: NORTH WALPOLE Lat: -34.95 Lon: 116.72 Height: 73.0 m
Data from the previous 72 hours. | See also: Recent months at Walpole North
Date/Time
WST
Temp
°C
App
Temp
°C
Dew
Point
°C
Rel
Hum
%
Delta-T
°C
Wind Press
QNH
hPa
Press
MSL
hPa
Rain since
9am
mm
Dir  Spd
km/h
Gust
km/h
Spd
kts
Gust
kts
30/10:01am 12.8 6.9 7.3 69 2.7 WSW 28 46 15 25 1011.0 1010.9 1.4
30/10:00am 12.4 6.8 7.1 70 2.6 WSW 26 46 14 25 1010.8 1010.7 1.4
30/09:38am 12.8 7.0 7.9 72 2.4 SW 28 52 15 28 1010.4 1010.3 1.0
30/09:30am 13.0 9.0 8.9 76 2.1 SW 20 37 11 20 1010.3 1010.2 0.8
30/09:00am 12.6 8.8 9.2 80 1.7 SW 19 32 10 17 1009.7 1009.6 10.8
30/08:30am 10.5 7.0 8.6 88 0.9 SW 17 33 9 18 1009.2 1009.1 10.8
30/08:00am 9.9 6.0 7.2 83 1.3 WSW 17 24 9 13 1009.2 1009.1 10.0
30/07:39am 10.8 4.5 5.8 71 2.3 SW 28 57 15 31 1008.9 1008.8 9.2
30/07:30am 12.6 8.4 7.3 70 2.6 SW 19 35 10 19 1008.3 1008.1 9.2
30/07:00am 11.7 7.2 6.8 72 2.3 SW 20 39 11 21 1007.6 1007.4 9.2
30/06:30am 11.3 6.8 7.0 75 2.1 SW 20 35 11 19 1006.9 1006.7 9.2
30/06:00am 10.7 6.3 7.6 81 1.5 SW 20 35 11 19 1006.1 1005.9 9.2
30/05:30am 10.9 6.0 7.0 77 1.9 WSW 22 39 12 21 1005.4 1005.3 9.2
30/05:14am 11.2 5.3 7.3 77 1.9 WSW 28 54 15 29 1004.8 1004.7 9.2
30/05:00am 11.3 5.6 6.8 74 2.2 W 26 44 14 24 1004.6 1004.5 9.2
30/04:30am 11.7 7.3 6.4 70 2.5 W 19 35 10 19 1004.2 1004.1 9.0
30/04:00am 11.8 7.1 6.1 68 2.7 W 20 32 11 17 1004.0 1003.9 9.0
30/03:30am 11.5 7.6 7.0 74 2.2 W 17 37 9 20 1003.8 1003.7 9.0
30/03:00am 11.4 7.5 7.1 75 2.1 W 17 32 9 17 1003.9 1003.8 9.0
30/02:30am 11.2 8.2 9.3 88 1.0 W 15 24 8 13 1003.7 1003.6 9.0
30/02:00am 11.3 8.1 11.1 99 0.1 W 19 28 10 15 1003.5 1003.4 9.0
30/01:30am 11.8 8.8 11.8 100 0.0 W 19 30 10 16 1003.5 1003.4 8.8
30/01:00am 12.4 9.5 12.4 100 0.0 WNW 19 28 10 15 1003.4 1003.3 7.6
30/12:30am 12.4 10.3 12.4 100 0.0 WNW 15 22 8 12 1003.5 1003.4 6.4
30/12:00am 12.7 9.7 12.5 99 0.1 NW 20 35 11 19 1003.6 1003.5 1.2
 
Date/Time
WST
Temp
°C
App
Temp
°C
Dew
Point
°C
Rel
Hum
%
Delta-T
°C
Wind Press
QNH
hPa
Press
MSL
hPa
Rain since
9am
mm
Dir  Spd
km/h
Gust
km/h
Spd
kts
Gust
kts
29/11:30pm 12.7 8.5 12.5 99 0.1 NW 26 35 14 19 1003.7 1003.6 0.6
29/11:00pm 12.6 8.8 12.4 99 0.1 NW 24 33 13 18 1004.2 1004.1 0.6
29/10:30pm 12.7 8.9 12.5 99 0.1 NW 24 33 13 18 1004.5 1004.4 0.6
29/10:00pm 12.6 9.2 12.4 99 0.1 NW 22 32 12 17 1004.9 1004.8 0.6
29/09:30pm 12.8 8.7 12.6 99 0.1 NW 26 39 14 21 1005.2 1005.1 0.6
29/09:00pm 13.5 9.3 11.2 86 1.2 NW 24 41 13 22 1005.4 1005.3 0.2
29/08:30pm 13.7 10.3 10.5 81 1.7 NW 19 32 10 17 1005.7 1005.5 0.2
29/08:00pm 14.0 10.9 10.2 78 2.0 NW 17 24 9 13 1005.5 1005.4 0.2
29/07:30pm 13.8 11.8 10.2 79 1.9 NNW 11 19 6 10 1005.3 1005.2 0.2
29/07:00pm 14.3 12.0 10.5 78 2.0 NNW 13 24 7 13 1005.8 1005.6 0.2
29/06:30pm 14.9 12.2 10.5 75 2.3 NNW 15 26 8 14 1006.1 1005.9 0.2
29/06:00pm 15.3 12.8 11.1 76 2.3 NW 15 24 8 13 1006.2 1006.0 0.2
29/05:30pm 15.0 12.4 10.8 76 2.2 NW 15 22 8 12 1006.2 1006.0 0.2
29/05:00pm 14.9 11.7 11.3 79 1.9 NW 19 24 10 13 1006.3 1006.1 0.2
29/04:30pm 14.8 13.1 12.5 86 1.3 NW 13 19 7 10 1006.5 1006.3 0.2
29/04:00pm 14.1 11.3 11.4 84 1.4 WNW 17 20 9 11 1007.1 1006.9 0.0
29/03:30pm 15.2 13.0 10.8 75 2.3 WSW 13 20 7 11 1007.5 1007.3 0.0
29/03:00pm 15.8 13.5 10.6 71 2.8 WNW 13 19 7 10 1008.1 1007.9 0.0
29/02:30pm 15.7 13.0 10.2 70 2.9 WNW 15 24 8 13 1008.6 1008.5 0.0
29/02:00pm 15.8 12.9 9.7 67 3.2 WNW 15 26 8 14 1008.8 1008.7 0.0
29/01:30pm 16.0 12.7 9.7 66 3.3 W 17 28 9 15 1009.0 1008.9 0.0
29/01:00pm 16.0 13.7 10.3 69 3.0 WNW 13 24 7 13 1009.3 1009.2 0.0
29/12:30pm 16.1 13.5 10.6 70 2.9 W 15 22 8 12 1009.3 1009.2 0.0
29/12:00pm 15.6 12.5 10.2 70 2.8 WNW 17 26 9 14 1009.7 1009.6 0.0
29/11:30am 15.2 12.4 10.0 71 2.7 WNW 15 26 8 14 1009.9 1009.8 0.0
29/11:00am 14.9 12.5 10.1 73 2.5 NW 13 20 7 11 1010.4 1010.3 0.0
29/10:30am 14.5 11.6 9.5 72 2.6 NW 15 20 8 11 1010.7 1010.6 0.0
29/10:00am 14.1 12.9 9.5 74 2.4 NNW 6 11 3 6 1010.8 1010.7 0.0
29/09:30am 13.7 12.3 9.7 77 2.1 NNW 7 11 4 6 1011.3 1011.2 0.0
29/09:00am 13.2 13.4 10.6 84 1.4 CALM 0 6 0 3 1011.7 1011.6 0.0
29/08:30am 12.6 12.3 11.3 92 0.7 NE 4 9 2 5 1012.1 1012.0 0.0
29/08:00am 12.2 12.6 11.4 95 0.4 CALM 0 0 0 0 1012.5 1012.4 0.0
29/07:30am 11.1 11.1 9.7 91 0.7 CALM 0 0 0 0 1012.6 1012.5 0.0
29/07:00am 11.6 10.6 10.3 92 0.7 N 6 11 3 6 1012.9 1012.8 0.0
29/06:30am 11.0 9.9 10.8 99 0.1 N 7 9 4 5 1012.9 1012.8 0.0
29/06:00am 10.5 8.6 10.5 100 0.0 N 11 17 6 9 1013.1 1013.0 0.0
29/05:30am 8.4 8.0 8.4 100 0.0 CALM 0 6 0 3 1013.2 1013.1 0.0
29/05:00am 8.0 7.2 8.0 100 0.0 NE 2 7 1 4 1013.2 1013.1 0.0
29/04:30am 7.7 6.8 7.7 100 0.0 NE 2 6 1 3 1013.2 1013.1 0.0
29/04:00am 7.6 7.0 7.6 100 0.0 CALM 0 6 0 3 1013.2 1013.1 0.0
29/03:30am 7.8 6.2 7.8 100 0.0 NE 6 7 3 4 1013.3 1013.2 0.0
29/03:00am 8.0 6.4 8.0 100 0.0 NE 6 7 3 4 1013.3 1013.2 0.0
29/02:30am 7.7 7.2 7.7 100 0.0 CALM 0 6 0 3 1013.8 1013.7 0.0
29/02:00am 7.9 7.4 7.9 100 0.0 CALM 0 0 0 0 1014.1 1014.0 0.0
29/01:30am 8.2 7.8 8.1 99 0.0 CALM 0 0 0 0 1014.7 1014.6 0.0
29/01:00am 8.9 8.6 8.8 99 0.0 CALM 0 0 0 0 1015.2 1015.1 0.0
29/12:30am 9.1 8.9 9.0 99 0.0 CALM 0 0 0 0 1015.7 1015.6 0.0
29/12:00am 9.0 8.8 8.9 99 0.0 CALM 0 0 0 0 1016.0 1015.9 0.0
 
Date/Time
WST
Temp
°C
App
Temp
°C
Dew
Point
°C
Rel
Hum
%
Delta-T
°C
Wind Press
QNH
hPa
Press
MSL
hPa
Rain since
9am
mm
Dir  Spd
km/h
Gust
km/h
Spd
kts
Gust
kts
28/11:30pm 9.0 8.8 8.9 99 0.0 CALM 0 0 0 0 1016.2 1016.1 0.0
28/11:00pm 9.4 8.5 9.1 98 0.1 SSW 4 7 2 4 1016.3 1016.2 0.0
28/10:30pm 9.9 9.6 8.5 91 0.7 CALM 0 0 0 0 1016.4 1016.3 0.0
28/10:00pm 10.5 10.1 8.4 87 1.0 CALM 0 0 0 0 1016.7 1016.6 0.0
28/09:30pm 11.1 10.3 8.3 83 1.4 SSW 2 7 1 4 1017.1 1017.0 0.0
28/09:00pm 11.3 10.8 8.0 80 1.6 CALM 0 0 0 0 1017.1 1017.0 0.0
28/08:30pm 11.7 11.1 7.6 76 2.0 CALM 0 0 0 0 1017.3 1017.2 0.0
28/08:00pm 12.0 11.4 7.5 74 2.2 CALM 0 0 0 0 1017.5 1017.4 0.0
28/07:30pm 12.5 11.9 7.2 70 2.6 CALM 0 0 0 0 1017.5 1017.4 0.0
28/07:00pm 13.9 12.1 7.2 64 3.3 SSW 6 9 3 5 1017.5 1017.4 0.0
28/06:30pm 15.5 12.7 7.0 57 4.2 SW 11 19 6 10 1017.5 1017.4 0.0
28/06:00pm 16.5 13.5 7.7 56 4.4 SSW 13 22 7 12 1017.3 1017.2 0.0
28/05:30pm 17.1 14.1 7.7 54 4.8 WSW 13 20 7 11 1017.3 1017.2 0.0
28/05:00pm 17.0 13.4 8.4 57 4.4 SSW 17 22 9 12 1017.3 1017.2 0.0
28/04:30pm 18.5 15.9 9.3 55 4.8 SW 13 20 7 11 1017.3 1017.2 0.0
28/04:00pm 17.0 13.9 8.7 58 4.3 SW 15 28 8 15 1017.6 1017.5 0.0
28/03:30pm 17.7 14.2 8.8 56 4.6 SSW 17 26 9 14 1017.6 1017.5 0.0
28/03:00pm 17.0 13.6 7.6 54 4.7 SW 15 24 8 13 1017.5 1017.4 0.0
28/02:30pm 17.3 14.0 7.9 54 4.8 SSW 15 24 8 13 1017.3 1017.2 0.0
28/02:00pm 18.2 15.7 9.8 58 4.5 SSW 13 22 7 12 1017.4 1017.3 0.0
28/01:30pm 16.6 12.5 8.6 59 4.1 SE 20 32 11 17 1017.9 1017.8 0.0
28/01:00pm 16.4 13.1 7.9 57 4.3 SE 15 20 8 11 1018.1 1018.0 0.0
28/12:30pm 16.5 12.9 8.2 58 4.2 SE 17 24 9 13 1018.2 1018.1 0.0
28/12:00pm 16.5 14.1 7.2 54 4.6 S 9 13 5 7 1019.1 1019.0 0.0
28/11:30am 17.3 15.4 9.0 58 4.3 S 9 19 5 10 1019.1 1019.0 0.0
28/11:00am 17.4 15.4 8.8 57 4.4 S 9 20 5 11 1019.1 1019.0 0.0
28/10:30am 16.2 12.9 7.9 58 4.2 ESE 15 22 8 12 1018.8 1018.7 0.0
28/10:00am 16.9 15.4 9.1 60 4.0 S 7 17 4 9 1019.0 1018.9 0.0
28/09:30am 15.6 12.5 7.1 57 4.2 S 13 20 7 11 1019.2 1019.1 0.0
28/09:00am 15.0 12.1 8.3 64 3.4 SSW 13 20 7 11 1019.4 1019.3 6.8
28/08:30am 15.3 13.3 8.8 65 3.3 SW 9 15 5 8 1019.5 1019.4 6.8
28/08:00am 14.2 11.9 9.0 71 2.6 SSW 11 20 6 11 1019.5 1019.4 6.8
28/07:30am 13.9 12.8 9.9 77 2.1 WSW 6 9 3 5 1018.9 1018.8 6.8
28/07:00am 12.2 11.9 8.5 78 1.8 CALM 0 0 0 0 1019.0 1018.9 6.8
28/06:30am 11.8 11.1 8.5 80 1.6 WSW 2 6 1 3 1018.5 1018.4 6.8
28/06:00am 10.4 9.9 8.0 85 1.2 CALM 0 6 0 3 1018.2 1018.1 6.8
28/05:30am 9.4 7.9 7.0 85 1.1 WSW 4 7 2 4 1017.9 1017.8 6.8
28/05:00am 9.1 7.2 6.7 85 1.1 WSW 6 7 3 4 1017.7 1017.6 6.8
28/04:30am 9.5 7.6 6.6 82 1.4 WSW 6 7 3 4 1017.5 1017.4 6.8
28/04:00am 10.0 8.9 7.1 82 1.4 WSW 2 7 1 4 1017.3 1017.2 6.8
28/03:30am 9.4 7.6 7.2 86 1.0 WSW 6 7 3 4 1017.1 1017.0 6.8
28/03:00am 9.3 7.5 7.1 86 1.0 WSW 6 9 3 5 1017.0 1016.9 6.6
28/02:30am 9.4 7.6 7.3 87 1.0 WSW 6 7 3 4 1016.9 1016.8 6.6
28/02:00am 9.8 8.1 7.4 85 1.1 SW 6 9 3 5 1016.9 1016.8 6.6
28/01:30am 9.7 8.3 7.3 85 1.1 SW 4 9 2 5 1016.9 1016.8 6.6
28/01:00am 9.8 8.9 7.6 86 1.1 W 2 7 1 4 1017.3 1017.2 6.6
28/12:30am 10.1 8.4 7.5 84 1.2 W 6 7 3 4 1017.5 1017.4 6.6
28/12:00am 10.4 8.7 7.6 83 1.3 WSW 6 9 3 5 1017.6 1017.5 6.6
 
Date/Time
WST
Temp
°C
App
Temp
°C
Dew
Point
°C
Rel
Hum
%
Delta-T
°C
Wind Press
QNH
hPa
Press
MSL
hPa
Rain since
9am
mm
Dir  Spd
km/h
Gust
km/h
Spd
kts
Gust
kts
27/11:30pm 10.9 9.1 8.1 83 1.4 WSW 7 13 4 7 1017.6 1017.5 6.6
27/11:00pm 11.1 9.5 8.7 85 1.2 SW 7 13 4 7 1017.6 1017.5 6.6
27/10:30pm 10.9 10.6 8.7 86 1.1 CALM 0 4 0 2 1017.5 1017.4 6.6
27/10:00pm 11.1 9.7 8.8 86 1.1 SSW 6 11 3 6 1017.4 1017.3 6.6
27/09:30pm 11.3 9.4 10.4 94 0.5 SSW 11 20 6 11 1017.3 1017.2 6.6
27/09:00pm 11.7 9.2 11.1 96 0.3 SSW 15 20 8 11 1016.9 1016.8 6.6
27/08:30pm 11.4 8.4 10.5 94 0.5 SSW 17 26 9 14 1016.6 1016.5 6.6
27/08:00pm 11.4 9.1 10.5 94 0.5 SSW 13 26 7 14 1016.2 1016.1 6.6
27/07:30pm 12.5 11.7 11.2 92 0.7 SW 6 19 3 10 1015.8 1015.7 6.6
27/07:00pm 13.9 13.0 10.5 80 1.8 SW 6 11 3 6 1015.2 1015.1 5.0
27/06:30pm 14.2 13.1 10.8 80 1.8 SW 7 15 4 8 1014.9 1014.8 5.0
27/06:00pm 14.5 12.9 11.5 82 1.6 SSW 11 19 6 10 1014.7 1014.6 5.0
27/05:30pm 14.9 12.1 11.5 80 1.8 SSW 17 24 9 13 1014.5 1014.4 5.0
27/05:00pm 15.5 13.5 11.5 77 2.2 SW 13 26 7 14 1014.3 1014.2 5.0
27/04:30pm 15.3 13.1 12.1 81 1.7 SW 15 28 8 15 1014.0 1013.9 5.0
27/04:00pm 14.9 14.7 14.7 99 0.1 SSW 9 11 5 6 1013.9 1013.8 5.0
27/03:30pm 14.3 14.3 14.1 99 0.1 SSW 7 13 4 7 1014.2 1014.1 5.0
27/03:00pm 14.6 14.3 14.4 99 0.1 SW 9 13 5 7 1014.2 1014.1 5.0
27/02:30pm 14.8 15.9 14.5 98 0.2 S 2 7 1 4 1014.1 1014.0 4.6
27/02:00pm 15.9 16.6 14.4 91 0.9 S 4 9 2 5 1013.9 1013.8 3.2
27/01:30pm 15.3 14.6 14.3 94 0.6 SSW 11 15 6 8 1014.2 1014.1 3.2
27/01:00pm 15.5 16.2 14.4 93 0.6 SSE 4 7 2 4 1014.1 1014.0 3.2
27/12:30pm 15.0 15.2 14.8 99 0.1 ESE 7 11 4 6 1014.3 1014.2 3.2
27/12:00pm 14.6 14.3 14.4 99 0.1 SSW 9 13 5 7 1014.6 1014.5 3.2
27/11:30am 15.0 14.5 14.8 99 0.1 SSW 11 20 6 11 1014.7 1014.6 1.8
27/11:00am 15.3 15.6 15.1 99 0.1 SW 7 13 4 7 1014.8 1014.7 1.0
27/10:30am 14.7 14.1 13.6 93 0.6 SW 9 20 5 11 1014.7 1014.6 0.8

Other formats

Comma delimited format used in spreadsheet applications
http://www.bom.gov.au/fwo/IDW60801/IDW60801.95647.axf

JavaScript Object Notation format (JSON) in row-major order
http://www.bom.gov.au/fwo/IDW60801/IDW60801.95647.json

Data quality

Most of these data are generated automatically and are frequently updated. Quality checks on data are not normally performed. It is possible for incorrect values to appear. Refer to information at About Latest Weather Observations and please check the disclaimer before using these data.